createdAt,value
2018-05-10T00:01:24.886Z,4.53
2018-05-10T00:03:51.585Z,6.13
2018-05-10T00:06:17.924Z,4.53
2018-05-10T00:08:44.262Z,4.80
2018-05-10T00:11:10.637Z,4.83
2018-05-10T00:13:37.967Z,4.23
2018-05-10T00:16:04.325Z,4.80
2018-05-10T00:18:31.411Z,6.03
2018-05-10T00:20:57.734Z,5.90
2018-05-10T00:23:24.044Z,6.47
2018-05-10T00:25:51.120Z,4.60
2018-05-10T00:28:17.466Z,6.10
2018-05-10T00:30:43.819Z,7.20
2018-05-10T00:33:10.137Z,4.70
2018-05-10T00:35:36.493Z,4.93
2018-05-10T00:38:02.825Z,4.57
2018-05-10T00:40:29.181Z,4.97
2018-05-10T00:42:56.233Z,5.33
2018-05-10T00:45:23.330Z,4.33
2018-05-10T00:47:50.157Z,4.93
2018-05-10T00:50:16.470Z,5.27
2018-05-10T00:52:42.869Z,7.03
2018-05-10T00:55:09.965Z,5.47
2018-05-10T00:57:37.023Z,4.67
2018-05-10T01:00:03.391Z,4.43
2018-05-10T01:02:29.713Z,4.70
2018-05-10T01:04:56.319Z,5.47
2018-05-10T01:07:22.626Z,5.30
2018-05-10T01:09:48.936Z,4.10
2018-05-10T01:12:15.281Z,4.60
2018-05-10T01:14:41.661Z,3.83
2018-05-10T01:17:08.034Z,5.43
2018-05-10T01:19:34.395Z,4.00
2018-05-10T01:22:00.793Z,4.33
2018-05-10T01:24:28.252Z,3.90
2018-05-10T01:26:55.309Z,4.03
2018-05-10T01:29:21.668Z,5.13
2018-05-10T01:31:47.982Z,4.63
2018-05-10T01:34:14.674Z,5.63
2018-05-10T01:36:41.037Z,4.10
2018-05-10T01:39:08.081Z,4.93
2018-05-10T01:41:35.139Z,3.43
2018-05-10T01:44:01.870Z,3.70
2018-05-10T01:46:28.961Z,3.70
2018-05-10T01:48:55.463Z,5.57
2018-05-10T01:51:21.790Z,4.00
2018-05-10T01:53:48.382Z,4.90
2018-05-10T01:56:14.701Z,7.33
2018-05-10T01:58:41.797Z,5.57
2018-05-10T02:01:08.858Z,3.93
2018-05-10T02:03:35.938Z,3.90
2018-05-10T02:06:02.357Z,4.40
2018-05-10T02:08:28.729Z,4.63
2018-05-10T02:10:55.218Z,5.93
2018-05-10T02:13:21.553Z,3.83
2018-05-10T02:15:47.933Z,4.07
2018-05-10T02:18:14.248Z,5.53
2018-05-10T02:20:40.656Z,5.37
2018-05-10T02:23:06.978Z,3.80
2018-05-10T02:25:33.381Z,4.57
2018-05-10T02:28:00.512Z,3.90
2018-05-10T02:30:26.985Z,4.87
2018-05-10T02:32:53.432Z,3.50
2018-05-10T02:35:19.844Z,4.03
2018-05-10T02:37:46.194Z,3.70
2018-05-10T02:40:12.758Z,3.30
2018-05-10T02:42:39.094Z,4.43
2018-05-10T02:45:05.522Z,6.83
2018-05-10T02:47:31.950Z,4.63
2018-05-10T02:49:59.038Z,3.40
2018-05-10T02:52:26.171Z,3.73
2018-05-10T02:54:52.737Z,3.73
2018-05-10T02:57:19.058Z,3.23
2018-05-10T02:59:46.125Z,4.83
2018-05-10T03:02:12.497Z,3.70
2018-05-10T03:04:39.151Z,3.97
2018-05-10T03:07:05.504Z,3.77
2018-05-10T03:09:32.614Z,3.70
2018-05-10T03:11:58.955Z,3.37
2018-05-10T03:14:25.313Z,4.13
2018-05-10T03:16:52.406Z,3.43
2018-05-10T03:19:18.753Z,3.87
2018-05-10T03:21:45.118Z,3.43
2018-05-10T03:24:12.382Z,4.57
2018-05-10T03:26:38.724Z,3.73
2018-05-10T03:29:05.046Z,4.23
2018-05-10T03:31:32.185Z,3.50
2018-05-10T03:33:59.501Z,4.33
2018-05-10T03:36:25.903Z,4.27
2018-05-10T03:38:52.226Z,3.23
2018-05-10T03:41:18.560Z,3.60
2018-05-10T03:43:44.908Z,4.13
2018-05-10T03:46:11.469Z,3.27
2018-05-10T03:48:37.814Z,4.40
2018-05-10T03:51:04.121Z,4.10
2018-05-10T03:53:30.524Z,4.10
2018-05-10T03:55:57.021Z,4.83
2018-05-10T03:58:23.337Z,5.23
2018-05-10T04:00:49.684Z,3.67
2018-05-10T04:06:40.450Z,4.07
2018-05-10T04:09:18.938Z,3.63
2018-05-10T04:11:45.270Z,4.33
2018-05-10T04:14:12.522Z,4.40
2018-05-10T04:16:38.846Z,5.37
2018-05-10T04:19:05.173Z,3.80
2018-05-10T04:21:32.264Z,3.37
2018-05-10T04:23:58.661Z,5.83
2018-05-10T04:26:24.974Z,4.30
2018-05-10T04:28:51.323Z,4.73
2018-05-10T04:31:18.384Z,4.80
2018-05-10T04:33:44.709Z,7.03
2018-05-10T04:36:11.810Z,5.57
2018-05-10T04:38:38.181Z,5.83
2018-05-10T04:41:05.291Z,7.13
2018-05-10T04:43:31.605Z,6.40
2018-05-10T04:45:58.103Z,5.67
2018-05-10T04:48:24.433Z,6.13
2018-05-10T04:50:50.743Z,7.17
2018-05-10T04:53:17.102Z,9.33
2018-05-10T04:55:43.413Z,10.30
2018-05-10T04:58:09.746Z,6.90
2018-05-10T05:00:36.853Z,7.20
2018-05-10T05:03:03.230Z,7.70
2018-05-10T05:05:30.469Z,8.77
2018-05-10T05:07:56.841Z,11.97
2018-05-10T05:10:23.197Z,11.57
2018-05-10T05:12:50.293Z,11.93
2018-05-10T05:15:16.638Z,11.63
2018-05-10T05:17:42.974Z,9.87
2018-05-10T05:20:10.149Z,14.17
2018-05-10T05:22:36.465Z,12.67
2018-05-10T05:25:02.981Z,9.93
2018-05-10T05:27:30.162Z,11.20
2018-05-10T05:29:56.527Z,12.47
2018-05-10T05:32:22.845Z,12.03
2018-05-10T05:34:49.422Z,13.60
2018-05-10T05:37:16.478Z,12.97
2018-05-10T05:39:44.112Z,13.17
2018-05-10T05:42:10.530Z,11.17
2018-05-10T05:44:37.131Z,11.87
2018-05-10T05:47:03.561Z,8.90
2018-05-10T05:49:30.909Z,8.43
2018-05-10T05:51:57.273Z,8.57
2018-05-10T05:54:23.873Z,7.90
2018-05-10T05:56:50.200Z,6.20
2018-05-10T05:59:16.530Z,6.00
2018-05-10T06:01:43.049Z,7.67
2018-05-10T06:04:10.282Z,5.70
2018-05-10T06:06:36.628Z,6.93
2018-05-10T06:09:04.574Z,9.87
2018-05-10T06:11:30.941Z,8.53
2018-05-10T06:13:57.548Z,8.70
2018-05-10T06:16:23.873Z,11.00
2018-05-10T06:18:50.187Z,7.37
2018-05-10T06:21:16.519Z,8.73
2018-05-10T06:23:42.942Z,8.60
2018-05-10T06:26:09.473Z,8.80
2018-05-10T06:28:35.795Z,8.23
2018-05-10T06:31:02.114Z,9.83
2018-05-10T06:33:28.592Z,9.53
2018-05-10T06:35:54.914Z,10.97
2018-05-10T06:38:21.226Z,9.50
2018-05-10T06:40:47.577Z,10.63
2018-05-10T06:43:13.877Z,7.93
2018-05-10T06:45:40.193Z,7.00
2018-05-10T06:48:06.544Z,7.97
2018-05-10T06:50:32.934Z,9.30
2018-05-10T06:52:59.300Z,7.67
2018-05-10T06:55:25.724Z,9.80
2018-05-10T06:57:52.072Z,8.47
2018-05-10T07:00:18.433Z,9.93
2018-05-10T07:02:44.740Z,8.23
2018-05-10T07:05:11.058Z,8.87
2018-05-10T07:07:37.398Z,10.20
2018-05-10T07:10:03.800Z,11.07
2018-05-10T07:12:30.117Z,11.07
2018-05-10T07:14:57.405Z,9.13
2018-05-10T07:17:23.757Z,10.77
2018-05-10T07:19:50.069Z,6.57
2018-05-10T07:22:16.425Z,6.50
2018-05-10T07:24:42.914Z,7.40
2018-05-10T07:27:09.983Z,6.77
2018-05-10T07:29:37.073Z,5.73
2018-05-10T07:32:03.429Z,6.33
2018-05-10T07:34:30.597Z,9.07
2018-05-10T07:36:56.937Z,6.57
2018-05-10T07:39:23.252Z,6.47
2018-05-10T07:41:50.345Z,5.90
2018-05-10T07:44:16.693Z,6.37
2018-05-10T07:46:43.017Z,6.87
2018-05-10T07:49:10.089Z,5.77
2018-05-10T07:51:36.417Z,5.80
2018-05-10T07:54:04.389Z,6.30
2018-05-10T07:56:30.805Z,5.63
2018-05-10T07:58:57.443Z,5.40
2018-05-10T08:01:23.930Z,6.00
2018-05-10T08:03:50.994Z,5.90
2018-05-10T08:06:17.409Z,5.63
2018-05-10T08:08:43.728Z,5.73
2018-05-10T08:11:10.075Z,6.63
2018-05-10T08:13:37.208Z,5.50
2018-05-10T08:16:04.551Z,6.47
2018-05-10T08:18:30.966Z,5.63
2018-05-10T08:20:57.301Z,6.07
2018-05-10T08:23:23.602Z,6.93
2018-05-10T08:25:49.965Z,7.63
2018-05-10T08:28:16.281Z,5.57
2018-05-10T08:30:43.341Z,6.63
2018-05-10T08:33:09.666Z,6.17
2018-05-10T08:35:35.994Z,5.27
2018-05-10T08:38:02.345Z,5.07
2018-05-10T08:40:29.491Z,5.93
2018-05-10T08:42:55.808Z,6.20
2018-05-10T08:45:22.179Z,8.00
2018-05-10T08:47:48.505Z,5.27
2018-05-10T08:50:15.590Z,6.53
2018-05-10T08:52:41.900Z,5.00
2018-05-10T08:55:08.209Z,5.37
2018-05-10T08:57:34.561Z,4.77
2018-05-10T09:00:01.867Z,5.30
2018-05-10T09:02:28.166Z,5.03
2018-05-10T09:04:54.561Z,5.17
2018-05-10T09:07:20.954Z,6.83
2018-05-10T09:09:47.252Z,5.13
2018-05-10T09:12:13.610Z,4.97
2018-05-10T09:14:40.458Z,5.17
2018-05-10T09:17:06.770Z,6.13
2018-05-10T09:19:33.140Z,5.57
2018-05-10T09:21:59.577Z,6.30
2018-05-10T09:24:26.225Z,5.00
2018-05-10T09:26:52.557Z,5.87
2018-05-10T09:29:18.869Z,5.37
2018-05-10T09:31:45.216Z,5.63
2018-05-10T09:34:11.761Z,5.33
2018-05-10T09:36:39.378Z,5.17
2018-05-10T09:39:05.805Z,5.10
2018-05-10T09:41:32.855Z,5.73
2018-05-10T09:43:59.578Z,4.97
2018-05-10T09:46:25.895Z,6.00
2018-05-10T09:48:52.226Z,4.97
2018-05-10T09:51:18.567Z,6.70
2018-05-10T09:53:44.888Z,4.87
2018-05-10T09:56:11.476Z,5.03
2018-05-10T09:58:37.837Z,7.17
2018-05-10T10:01:04.181Z,4.93
2018-05-10T10:03:30.880Z,4.70
2018-05-10T10:05:57.230Z,4.13
2018-05-10T10:08:24.309Z,5.47
2018-05-10T10:10:50.642Z,4.27
2018-05-10T10:13:16.997Z,4.20
2018-05-10T10:15:44.128Z,4.10
2018-05-10T10:18:10.433Z,5.33
2018-05-10T10:20:36.797Z,4.27
2018-05-10T10:23:03.166Z,4.13
2018-05-10T10:25:29.493Z,3.33
2018-05-10T10:27:55.829Z,2.70
2018-05-10T10:30:22.239Z,2.90
2018-05-10T10:32:48.593Z,2.60
2018-05-10T10:35:14.949Z,2.50
2018-05-10T10:37:41.257Z,2.60
2018-05-10T10:40:08.367Z,3.30
2018-05-10T10:42:34.716Z,2.60
2018-05-10T10:45:01.265Z,3.17
2018-05-10T10:47:27.603Z,3.03
2018-05-10T10:49:53.913Z,2.47
2018-05-10T10:52:20.255Z,2.57
2018-05-10T10:54:46.818Z,2.50
2018-05-10T10:57:13.891Z,2.83
2018-05-10T10:59:40.226Z,2.50
2018-05-10T11:02:06.571Z,2.60
2018-05-10T11:04:33.101Z,2.50
2018-05-10T11:06:59.441Z,3.63
2018-05-10T11:09:25.766Z,2.40
2018-05-10T11:11:52.114Z,2.50
2018-05-10T11:14:18.441Z,2.97
2018-05-10T11:16:44.765Z,2.30
2018-05-10T11:19:11.087Z,2.50
2018-05-10T11:21:37.521Z,2.30
2018-05-10T11:24:04.097Z,2.03
2018-05-10T11:26:30.515Z,2.10
2018-05-10T11:28:56.854Z,2.50
2018-05-10T11:31:23.937Z,2.47
2018-05-10T11:33:50.273Z,2.30
2018-05-10T11:36:16.615Z,2.37
2018-05-10T11:38:42.981Z,3.17
2018-05-10T11:41:09.318Z,2.17
2018-05-10T11:43:35.674Z,2.50
2018-05-10T11:46:02.870Z,2.23
2018-05-10T11:48:29.195Z,2.83
2018-05-10T11:50:55.541Z,2.30
2018-05-10T11:53:21.977Z,2.10
2018-05-10T11:55:48.316Z,2.50
2018-05-10T11:58:14.637Z,2.60
2018-05-10T12:00:41.892Z,2.70
2018-05-10T12:03:08.333Z,2.50
2018-05-10T12:05:34.661Z,2.60
2018-05-10T12:08:01.083Z,4.70
2018-05-10T12:10:27.421Z,2.23
2018-05-10T12:12:53.821Z,2.37
2018-05-10T12:15:20.318Z,5.23
2018-05-10T12:17:46.625Z,2.40
2018-05-10T12:20:13.197Z,2.97
2018-05-10T12:22:40.295Z,4.43
2018-05-10T12:25:06.870Z,2.60
2018-05-10T12:27:33.399Z,4.00
2018-05-10T12:29:59.713Z,3.30
2018-05-10T12:32:26.033Z,2.67
2018-05-10T12:34:52.614Z,4.87
2018-05-10T12:37:20.181Z,2.80
2018-05-10T12:39:46.531Z,3.20
2018-05-10T12:42:12.909Z,2.90
2018-05-10T12:44:39.359Z,2.80
2018-05-10T12:47:05.741Z,2.53
2018-05-10T12:49:32.067Z,2.50
2018-05-10T12:51:58.365Z,2.97
2018-05-10T12:54:25.565Z,2.70
2018-05-10T12:56:51.884Z,2.30
2018-05-10T12:59:18.245Z,2.20
2018-05-10T13:01:44.669Z,2.20
2018-05-10T13:04:11.222Z,2.37
2018-05-10T13:06:37.581Z,2.47
2018-05-10T13:09:04.718Z,2.23
2018-05-10T13:11:31.937Z,2.90
2018-05-10T13:13:58.390Z,2.40
2018-05-10T13:16:24.742Z,3.13
2018-05-10T13:18:51.089Z,3.50
2018-05-10T13:21:18.143Z,3.30
2018-05-10T13:23:44.513Z,2.50
2018-05-10T13:26:11.019Z,2.73
2018-05-10T13:28:38.103Z,2.53
2018-05-10T13:31:04.518Z,2.43
2018-05-10T13:33:30.839Z,2.03
2018-05-10T13:35:57.177Z,3.23
2018-05-10T13:38:23.527Z,2.83
2018-05-10T13:40:49.951Z,2.63
2018-05-10T13:43:16.307Z,2.00
2018-05-10T13:45:42.613Z,2.00
2018-05-10T13:48:09.066Z,2.17
2018-05-10T13:50:35.489Z,5.00
2018-05-10T13:53:02.013Z,2.50
2018-05-10T13:55:29.021Z,3.00
2018-05-10T13:57:55.357Z,2.17
2018-05-10T14:00:22.459Z,3.77
2018-05-10T14:02:48.773Z,3.17
2018-05-10T14:05:15.342Z,5.10
2018-05-10T14:07:41.703Z,3.03
2018-05-10T14:10:08.076Z,2.87
2018-05-10T14:12:34.474Z,2.73
2018-05-10T14:15:00.857Z,5.07
2018-05-10T14:17:27.230Z,3.17
2018-05-10T14:19:53.545Z,2.60
2018-05-10T14:22:20.657Z,4.67
2018-05-10T14:24:47.000Z,2.57
2018-05-10T14:27:13.317Z,2.83
2018-05-10T14:29:39.670Z,2.50
2018-05-10T14:32:06.018Z,3.77
2018-05-10T14:34:33.353Z,4.20
2018-05-10T14:36:59.910Z,3.00
2018-05-10T14:39:27.097Z,2.97
2018-05-10T14:41:53.482Z,2.40
2018-05-10T14:44:19.901Z,2.87
2018-05-10T14:46:46.253Z,2.93
2018-05-10T14:49:12.619Z,2.57
2018-05-10T14:51:38.942Z,2.23
2018-05-10T14:54:05.520Z,2.27
2018-05-10T14:56:32.745Z,2.43
2018-05-10T14:58:59.117Z,2.03
2018-05-10T15:01:25.428Z,3.37
2018-05-10T15:03:51.751Z,4.10
2018-05-10T15:06:18.088Z,3.90
2018-05-10T15:08:44.420Z,4.00
2018-05-10T15:11:10.826Z,3.23
2018-05-10T15:13:38.066Z,4.13
2018-05-10T15:16:04.454Z,3.20
2018-05-10T15:18:30.828Z,4.60
2018-05-10T15:20:57.137Z,4.10
2018-05-10T15:23:23.451Z,2.87
2018-05-10T15:25:49.865Z,3.23
2018-05-10T15:28:16.973Z,2.73
2018-05-10T15:30:43.286Z,4.43
2018-05-10T15:33:09.623Z,3.53
2018-05-10T15:35:36.753Z,3.53
2018-05-10T15:38:04.058Z,3.67
2018-05-10T15:40:30.409Z,4.43
2018-05-10T15:42:56.743Z,3.83
2018-05-10T15:45:23.103Z,3.93
2018-05-10T15:47:50.172Z,3.60
2018-05-10T15:50:16.507Z,4.03
2018-05-10T15:52:42.872Z,5.63
2018-05-10T15:55:09.494Z,3.90
2018-05-10T15:57:35.918Z,3.93
2018-05-10T16:00:02.373Z,5.97
2018-05-10T16:02:28.753Z,4.20
2018-05-10T16:04:55.861Z,3.50
2018-05-10T16:07:22.295Z,4.30
2018-05-10T16:09:48.633Z,4.30
2018-05-10T16:12:14.962Z,4.23
2018-05-10T16:14:41.541Z,3.60
2018-05-10T16:17:07.881Z,3.77
2018-05-10T16:19:35.015Z,4.40
2018-05-10T16:22:01.370Z,5.47
2018-05-10T16:24:27.861Z,4.70
2018-05-10T16:26:54.229Z,5.03
2018-05-10T16:29:20.553Z,5.23
2018-05-10T16:31:46.886Z,5.70
2018-05-10T16:34:13.407Z,8.40
2018-05-10T16:36:40.486Z,8.60
2018-05-10T16:39:07.576Z,7.40
2018-05-10T16:41:34.097Z,10.60
2018-05-10T16:44:00.437Z,6.90
2018-05-10T16:46:26.790Z,9.07
2018-05-10T16:48:53.165Z,6.97
2018-05-10T16:51:19.506Z,6.67
2018-05-10T16:53:45.821Z,6.90
2018-05-10T16:56:12.153Z,6.23
2018-05-10T16:58:38.483Z,4.50
2018-05-10T17:01:04.972Z,3.47
2018-05-10T17:03:31.290Z,4.90
2018-05-10T17:05:58.343Z,4.83
2018-05-10T17:08:24.694Z,2.87
2018-05-10T17:10:51.769Z,2.73
2018-05-10T17:13:18.078Z,3.17
2018-05-10T17:15:45.148Z,4.40
2018-05-10T17:18:11.481Z,4.43
2018-05-10T17:20:38.589Z,3.57
2018-05-10T17:23:04.941Z,6.33
2018-05-10T17:25:31.269Z,4.00
2018-05-10T17:27:58.361Z,3.40
2018-05-10T17:30:24.693Z,4.47
2018-05-10T17:32:51.066Z,5.13
2018-05-10T17:35:18.295Z,4.60
2018-05-10T17:37:45.361Z,6.27
2018-05-10T17:40:11.740Z,5.27
2018-05-10T17:42:38.770Z,3.73
2018-05-10T17:45:05.997Z,6.63
2018-05-10T17:47:32.334Z,4.03
2018-05-10T17:49:58.642Z,4.27
2018-05-10T17:52:24.969Z,3.57
2018-05-10T17:54:51.586Z,7.97
2018-05-10T17:57:17.910Z,4.57
2018-05-10T17:59:44.229Z,4.57
2018-05-10T18:02:10.658Z,4.67
2018-05-10T18:04:37.221Z,4.40
2018-05-10T18:07:03.597Z,5.47
2018-05-10T18:09:30.671Z,7.20
2018-05-10T18:11:56.969Z,4.77
2018-05-10T18:14:24.185Z,4.43
2018-05-10T18:16:50.512Z,4.70
2018-05-10T18:19:16.853Z,6.23
2018-05-10T18:21:43.185Z,5.33
2018-05-10T18:24:09.644Z,4.43
2018-05-10T18:26:36.001Z,5.23
2018-05-10T18:29:03.101Z,3.83
2018-05-10T18:31:29.437Z,4.90
2018-05-10T18:33:55.758Z,7.40
2018-05-10T18:36:22.178Z,4.80
2018-05-10T18:38:48.495Z,4.83
2018-05-10T18:41:14.813Z,4.73
2018-05-10T18:43:41.173Z,4.90
2018-05-10T18:46:07.546Z,6.20
2018-05-10T18:48:33.952Z,6.80
2018-05-10T18:51:00.310Z,5.97
2018-05-10T18:53:26.614Z,5.07
2018-05-10T18:55:52.967Z,3.90
2018-05-10T18:58:19.307Z,5.33
2018-05-10T19:00:46.362Z,6.97
2018-05-10T19:03:13.485Z,6.20
2018-05-10T19:05:39.837Z,4.73
2018-05-10T19:08:07.012Z,4.80
2018-05-10T19:10:33.369Z,5.00
2018-05-10T19:12:59.698Z,6.53
2018-05-10T19:15:26.070Z,5.63
2018-05-10T19:17:53.142Z,7.27
2018-05-10T19:20:20.199Z,7.17
2018-05-10T19:22:46.553Z,6.30
2018-05-10T19:25:13.057Z,6.00
2018-05-10T19:27:40.112Z,6.53
2018-05-10T19:30:07.209Z,5.97
2018-05-10T19:32:33.546Z,4.73
2018-05-10T19:35:00.089Z,5.47
2018-05-10T19:37:26.442Z,5.33
2018-05-10T19:39:52.746Z,5.47
2018-05-10T19:42:19.080Z,6.23
2018-05-10T19:44:45.629Z,6.00
2018-05-10T19:47:12.725Z,5.37
2018-05-10T19:49:39.829Z,6.00
2018-05-10T19:52:06.193Z,5.43
2018-05-10T19:54:32.774Z,4.13
2018-05-10T19:56:59.207Z,3.90
2018-05-10T19:59:25.486Z,5.17
2018-05-10T20:01:51.802Z,5.13
2018-05-10T20:04:19.168Z,4.90
2018-05-10T20:06:45.514Z,7.40
2018-05-10T20:09:11.898Z,3.80
2018-05-10T20:11:38.265Z,3.83
2018-05-10T20:14:04.801Z,5.13
2018-05-10T20:16:31.118Z,4.67
2018-05-10T20:18:58.225Z,5.07
2018-05-10T20:21:24.569Z,5.53
2018-05-10T20:23:50.885Z,6.47
2018-05-10T20:26:17.242Z,4.67
2018-05-10T20:28:43.585Z,8.20
2018-05-10T20:31:10.656Z,6.37
2018-05-10T20:33:37.805Z,14.90
2018-05-10T20:36:04.221Z,8.13
2018-05-10T20:38:31.293Z,23.60
2018-05-10T20:40:57.614Z,13.73
2018-05-10T20:43:23.941Z,13.27
2018-05-10T20:45:51.013Z,7.77
2018-05-10T20:48:17.337Z,8.47
2018-05-10T20:50:43.671Z,7.70
2018-05-10T20:53:10.030Z,6.67
2018-05-10T20:55:36.564Z,3.87
2018-05-10T20:58:02.917Z,5.37
2018-05-10T21:00:29.230Z,4.53
2018-05-10T21:02:55.563Z,3.37
2018-05-10T21:05:21.920Z,5.70
2018-05-10T21:07:48.227Z,3.63
2018-05-10T21:10:14.581Z,4.77
2018-05-10T21:12:41.965Z,5.37
2018-05-10T21:15:09.373Z,4.23
2018-05-10T21:17:35.825Z,4.53
2018-05-10T21:20:02.185Z,6.00
2018-05-10T21:22:28.557Z,7.00
2018-05-10T21:24:55.157Z,4.30
2018-05-10T21:27:21.499Z,4.63
2018-05-10T21:29:47.916Z,3.20
2018-05-10T21:32:14.249Z,4.33
2018-05-10T21:34:40.760Z,4.90
2018-05-10T21:37:07.152Z,4.70
2018-05-10T21:39:33.473Z,4.53
2018-05-10T21:41:59.791Z,4.50
2018-05-10T21:44:26.230Z,8.00
2018-05-10T21:46:52.601Z,3.30
2018-05-10T21:49:31.106Z,3.80
2018-05-10T21:51:57.452Z,6.50
2018-05-10T21:54:24.009Z,3.53
2018-05-10T21:56:51.078Z,6.07
2018-05-10T21:59:17.430Z,5.90
2018-05-10T22:01:43.829Z,3.20
2018-05-10T22:04:11.109Z,6.13
2018-05-10T22:06:37.434Z,4.10
2018-05-10T22:09:03.937Z,3.97
2018-05-10T22:11:30.181Z,4.47
2018-05-10T22:13:56.517Z,4.20
2018-05-10T22:16:23.729Z,5.73
2018-05-10T22:18:50.042Z,5.23
2018-05-10T22:21:17.146Z,4.07
2018-05-10T22:23:43.466Z,3.17
2018-05-10T22:26:10.789Z,4.17
2018-05-10T22:28:37.949Z,6.20
2018-05-10T22:31:04.262Z,5.73
2018-05-10T22:33:30.631Z,4.27
2018-05-10T22:35:57.857Z,5.43
2018-05-10T22:38:24.198Z,4.50
2018-05-10T22:40:50.534Z,2.90
2018-05-10T22:43:17.584Z,2.80
2018-05-10T22:45:43.989Z,4.17
2018-05-10T22:48:10.405Z,5.00
2018-05-10T22:50:36.941Z,4.77
2018-05-10T22:53:03.260Z,2.43
2018-05-10T22:55:29.594Z,5.60
2018-05-10T22:57:57.069Z,3.10
2018-05-10T23:00:23.436Z,6.63
2018-05-10T23:02:50.487Z,3.93
2018-05-10T23:05:17.545Z,3.60
2018-05-10T23:07:43.873Z,5.33
2018-05-10T23:10:10.953Z,4.40
2018-05-10T23:12:37.681Z,3.97
2018-05-10T23:15:04.864Z,3.67
2018-05-10T23:17:31.220Z,6.00
2018-05-10T23:19:57.545Z,4.83
2018-05-10T23:22:25.294Z,4.20
2018-05-10T23:24:51.658Z,4.37
2018-05-10T23:27:18.010Z,2.47
2018-05-10T23:29:44.428Z,4.23
2018-05-10T23:32:11.462Z,3.73
2018-05-10T23:34:37.790Z,4.40
2018-05-10T23:37:04.113Z,4.27
2018-05-10T23:39:30.494Z,3.20
2018-05-10T23:41:56.914Z,3.57
2018-05-10T23:44:23.245Z,4.53
2018-05-10T23:46:50.329Z,6.67
2018-05-10T23:49:16.661Z,3.77
2018-05-10T23:51:42.981Z,4.23
2018-05-10T23:54:09.352Z,7.57
2018-05-10T23:56:35.686Z,3.33
2018-05-10T23:59:02.043Z,3.70
